createdAt,value
2023-04-25T00:04:29.030Z,48.8
2023-04-25T00:09:29.166Z,48.7
2023-04-25T00:14:32.356Z,48.8
2023-04-25T00:19:32.173Z,48.7
2023-04-25T00:24:32.566Z,48.8
2023-04-25T00:29:32.944Z,48.8
2023-04-25T00:34:36.419Z,48.8
2023-04-25T00:39:36.364Z,48.6
2023-04-25T00:44:39.711Z,48.8
2023-04-25T00:49:42.491Z,48.7
2023-04-25T00:54:42.439Z,48.7
2023-04-25T00:59:42.787Z,48.3
2023-04-25T01:04:43.145Z,48.2
2023-04-25T01:09:43.541Z,48.5
2023-04-25T01:14:44.056Z,48.4
2023-04-25T01:19:47.318Z,48.5
2023-04-25T01:24:50.297Z,48.6
2023-04-25T01:29:52.975Z,48.7
2023-04-25T01:34:54.784Z,48.6
2023-04-25T01:39:57.730Z,48.8
2023-04-25T01:44:57.735Z,48.8
2023-04-25T01:49:58.431Z,48.8
2023-04-25T01:54:59.018Z,48.9
2023-04-25T01:59:59.327Z,48.9
2023-04-25T02:05:02.705Z,49
2023-04-25T02:10:05.383Z,48.9
2023-04-25T02:15:08.302Z,49
2023-04-25T02:20:11.013Z,49.1
2023-04-25T02:25:11.153Z,49.1
2023-04-25T02:30:11.687Z,49.1
2023-04-25T02:35:12.138Z,49
2023-04-25T02:40:15.462Z,49.1
2023-04-25T02:45:15.287Z,49.2
2023-04-25T02:50:15.945Z,49.1
2023-04-25T02:55:17.168Z,49.1
2023-04-25T03:00:17.605Z,49.1
2023-04-25T03:05:18.067Z,49
2023-04-25T03:10:18.522Z,49.2
2023-04-25T03:15:18.968Z,49
2023-04-25T03:20:22.113Z,49.2
2023-04-25T03:25:21.875Z,49.2
2023-04-25T03:30:22.461Z,49.2
2023-04-25T03:35:26.179Z,49.2
2023-04-25T03:40:25.795Z,49.2
2023-04-25T03:45:26.191Z,49.2
2023-04-25T03:50:26.390Z,49.2
2023-04-25T03:55:27.178Z,49.2
2023-04-25T04:00:27.399Z,48.9
2023-04-25T04:05:28.021Z,49
2023-04-25T04:10:29.349Z,48.9
2023-04-25T04:15:29.767Z,48.7
2023-04-25T04:20:30.119Z,48.8
2023-04-25T04:25:33.346Z,48.8
2023-04-25T04:30:33.300Z,48.7
2023-04-25T04:35:36.626Z,49
2023-04-25T04:40:36.712Z,48.9
2023-04-25T04:45:37.250Z,48.5
2023-04-25T04:50:37.854Z,48.6
2023-04-25T04:55:41.140Z,48.7
2023-04-25T05:00:44.074Z,48.7
2023-04-25T05:05:44.161Z,48.6
2023-04-25T05:10:44.650Z,48.7
2023-04-25T05:15:47.812Z,48.8
2023-04-25T05:20:47.740Z,48.7
2023-04-25T05:25:48.315Z,48.6
2023-04-25T05:30:48.955Z,49
2023-04-25T05:35:51.296Z,49.2
2023-04-25T05:40:51.513Z,49.1
2023-04-25T05:45:54.943Z,49.3
2023-04-25T05:50:54.733Z,49.1
2023-04-25T05:55:55.090Z,49.5
2023-04-25T06:00:55.605Z,49.2
2023-04-25T06:05:56.310Z,49.5
2023-04-25T06:10:56.909Z,49.3
2023-04-25T06:16:00.114Z,49.6
2023-04-25T06:20:59.917Z,49.5
2023-04-25T06:26:00.580Z,49.5
2023-04-25T06:31:01.124Z,49.5
2023-04-25T06:36:04.411Z,49.3
2023-04-25T06:41:04.586Z,48.9
2023-04-25T06:46:05.174Z,49.1
2023-04-25T06:51:08.192Z,49
2023-04-25T06:56:08.227Z,49
2023-04-25T07:01:08.816Z,49
2023-04-25T07:06:09.275Z,49
2023-04-25T07:11:12.430Z,49.1
2023-04-25T07:16:12.596Z,49
2023-04-25T07:21:12.861Z,49.1
2023-04-25T07:26:13.247Z,49.1
2023-04-25T07:31:13.713Z,49.1
2023-04-25T07:36:16.699Z,49.2
2023-04-25T07:41:16.786Z,49.2
2023-04-25T07:46:17.337Z,49.3
2023-04-25T07:51:22.066Z,49.1
2023-04-25T07:56:21.953Z,49
2023-04-25T08:01:25.172Z,49.1
2023-04-25T08:06:28.001Z,49
2023-04-25T08:11:27.893Z,49.2
2023-04-25T08:16:31.621Z,49.2
2023-04-25T08:21:34.168Z,49.2
2023-04-25T08:26:35.366Z,49.3
2023-04-25T08:31:35.651Z,49.3
2023-04-25T08:36:39.977Z,49.3
2023-04-25T08:41:38.934Z,49.3
2023-04-25T08:46:42.285Z,49.3
2023-04-25T08:51:44.944Z,49.4
2023-04-25T08:56:44.950Z,49.4
2023-04-25T09:01:48.421Z,49.5
2023-04-25T09:06:50.901Z,49.4
2023-04-25T09:11:50.915Z,49.4
2023-04-25T09:16:51.234Z,49.4
2023-04-25T09:21:51.767Z,49.4
2023-04-25T09:26:52.127Z,49.3
2023-04-25T09:31:52.649Z,49.4
2023-04-25T09:36:56.073Z,49.5
2023-04-25T09:41:56.227Z,49.5
2023-04-25T09:46:59.419Z,49.6
2023-04-25T09:51:59.193Z,49.7
2023-04-25T09:57:02.299Z,49.7
2023-04-25T10:02:02.095Z,49.8
2023-04-25T10:07:02.682Z,49.9
2023-04-25T10:12:03.161Z,49.9
2023-04-25T10:17:03.659Z,49.9
2023-04-25T10:22:06.901Z,49.9
2023-04-25T10:27:07.755Z,50
2023-04-25T10:32:08.857Z,50
2023-04-25T10:37:09.303Z,49.9
2023-04-25T10:42:09.619Z,49.9
2023-04-25T10:47:10.277Z,50
2023-04-25T10:52:10.901Z,50
2023-04-25T10:57:11.637Z,50
2023-04-25T11:02:12.416Z,49.8
2023-04-25T11:07:15.630Z,49.8
2023-04-25T11:12:15.771Z,49.9
2023-04-25T11:17:16.371Z,49.9
2023-04-25T11:22:16.973Z,49.9
2023-04-25T11:27:19.352Z,50
2023-04-25T11:32:22.362Z,49.9
2023-04-25T11:37:24.749Z,49.9
2023-04-25T11:42:27.528Z,50.1
2023-04-25T11:47:30.360Z,49.9
2023-04-25T11:52:30.391Z,50
2023-04-25T11:57:31.204Z,50.1
2023-04-25T12:02:31.568Z,50.1
2023-04-25T12:07:32.151Z,50.2
2023-04-25T12:12:35.443Z,50.2
2023-04-25T12:17:40.141Z,50.2
2023-04-25T12:22:42.542Z,50.1
2023-04-25T12:27:37.378Z,50.1
2023-04-25T12:32:37.806Z,49.8
2023-04-25T12:37:38.116Z,49.9
2023-04-25T12:42:38.596Z,49.9
2023-04-25T12:47:38.874Z,49.9
2023-04-25T12:52:39.675Z,49.8
2023-04-25T12:57:43.006Z,49.7
2023-04-25T13:02:43.329Z,49.6
2023-04-25T13:07:46.666Z,49.6
2023-04-25T13:12:46.688Z,49.6
2023-04-25T13:17:47.181Z,49.6
2023-04-25T13:22:47.625Z,49.6
2023-04-25T13:27:50.811Z,49.6
2023-04-25T13:32:51.004Z,49.6
2023-04-25T13:37:51.428Z,49.7
2023-04-25T13:42:51.912Z,49.7
2023-04-25T13:47:52.370Z,49.8
2023-04-25T13:52:55.566Z,49.9
2023-04-25T13:57:58.404Z,49.8
2023-04-25T14:02:58.405Z,49.8
2023-04-25T14:08:00.319Z,49.8
2023-04-25T14:12:59.391Z,49.9
2023-04-25T14:18:02.754Z,49.8
2023-04-25T14:23:02.630Z,49.8
2023-04-25T14:28:02.983Z,49.6
2023-04-25T14:33:03.714Z,49.7
2023-04-25T14:38:08.592Z,49.5
2023-04-25T14:43:08.306Z,49.5
2023-04-25T14:48:08.811Z,49.4
2023-04-25T14:53:09.142Z,49.4
2023-04-25T14:58:09.912Z,49.4
2023-04-25T15:03:01.333Z,49.4
2023-04-25T15:08:01.314Z,49.5
2023-04-25T15:13:02.130Z,49.5
2023-04-25T15:18:02.593Z,49.5
2023-04-25T15:23:03.171Z,49.6
2023-04-25T15:28:03.882Z,49.5
2023-04-25T15:33:04.541Z,49.6
2023-04-25T15:38:04.885Z,49.5
2023-04-25T15:43:05.377Z,49.5
2023-04-25T15:48:08.435Z,49.6
2023-04-25T15:53:08.450Z,49.6
2023-04-25T15:58:10.701Z,49.6
2023-04-25T16:03:12.406Z,49.7
2023-04-25T16:08:15.192Z,49.7
2023-04-25T16:13:17.888Z,49.7
2023-04-25T16:18:17.931Z,49.8
2023-04-25T16:23:18.405Z,49.8
2023-04-25T16:28:21.661Z,49.8
2023-04-25T16:33:21.659Z,49.8
2023-04-25T16:38:22.308Z,49.9
2023-04-25T16:43:25.692Z,49.8
2023-04-25T16:48:37.496Z,49.7
2023-04-25T16:53:36.210Z,49.7
2023-04-25T16:58:36.393Z,49.5
2023-04-25T17:03:37.147Z,49.5
2023-04-25T17:08:41.990Z,49.5
2023-04-25T17:13:41.511Z,49.5
2023-04-25T17:18:42.242Z,49.5
2023-04-25T17:23:42.913Z,49.5
2023-04-25T17:28:43.569Z,49.5
2023-04-25T17:33:43.985Z,49.5
2023-04-25T17:38:44.642Z,49.5
2023-04-25T17:43:44.988Z,49.4
2023-04-25T17:48:45.684Z,49.4
2023-04-25T17:53:46.071Z,49.5
2023-04-25T17:58:48.555Z,49.5
2023-04-25T18:03:49.108Z,49.5
2023-04-25T18:08:52.452Z,49.4
2023-04-25T18:13:52.202Z,49.4
2023-04-25T18:18:53.356Z,49.3
2023-04-25T18:23:53.073Z,49.3
2023-04-25T18:28:53.972Z,49.2
2023-04-25T18:33:54.556Z,49.2
2023-04-25T18:38:56.106Z,49.3
2023-04-25T18:43:55.848Z,49.3
2023-04-25T18:48:55.902Z,49.4
2023-04-25T18:53:56.307Z,49.5
2023-04-25T18:58:56.719Z,49.4
2023-04-25T19:04:04.369Z,49.5
2023-04-25T19:09:01.474Z,49.6
2023-04-25T19:14:02.580Z,49.6
2023-04-25T19:19:02.749Z,49.7
2023-04-25T19:24:02.988Z,49.8
2023-04-25T19:29:03.545Z,49.7
2023-04-25T19:34:08.420Z,49.8
2023-04-25T19:39:08.297Z,49.7
2023-04-25T19:44:08.680Z,49.7
2023-04-25T19:49:09.462Z,49.8
2023-04-25T19:54:10.033Z,49.9
2023-04-25T19:59:09.992Z,50
2023-04-25T20:04:03.119Z,49.9
2023-04-25T20:09:03.824Z,49.9
2023-04-25T20:14:04.329Z,50
2023-04-25T20:19:05.261Z,49.9
2023-04-25T20:24:05.556Z,50
2023-04-25T20:29:06.169Z,49.9
2023-04-25T20:34:11.147Z,49.9
2023-04-25T20:39:11.765Z,50
2023-04-25T20:44:14.990Z,49.9
2023-04-25T20:49:17.779Z,49.9
2023-04-25T20:54:17.898Z,50
2023-04-25T20:59:18.222Z,49.9
2023-04-25T21:04:18.821Z,49.9
2023-04-25T21:09:20.073Z,49.9
2023-04-25T21:14:16.906Z,49.8
2023-04-25T21:19:19.495Z,49.8
2023-04-25T21:24:20.287Z,50
2023-04-25T21:29:20.956Z,49.9
2023-04-25T21:34:21.459Z,49.8
2023-04-25T21:39:25.631Z,49.8
2023-04-25T21:44:28.228Z,49.7
2023-04-25T21:49:31.719Z,49.8
2023-04-25T21:54:31.572Z,49.8
2023-04-25T21:59:32.026Z,49.7
2023-04-25T22:04:32.787Z,49.6
2023-04-25T22:09:44.060Z,49.6
2023-04-25T22:14:39.749Z,49.5
2023-04-25T22:19:39.886Z,49.5
2023-04-25T22:24:40.960Z,49.5
2023-04-25T22:29:41.237Z,49.4
2023-04-25T22:34:42.708Z,49.4
2023-04-25T22:39:45.708Z,49.4
2023-04-25T22:44:48.368Z,49.4
2023-04-25T22:49:48.626Z,49.4
2023-04-25T22:54:49.053Z,49.2
2023-04-25T22:59:52.402Z,49.3
2023-04-25T23:04:52.400Z,49.2
2023-04-25T23:09:53.016Z,49.3
2023-04-25T23:14:53.539Z,49.3
2023-04-25T23:19:53.982Z,49.3
2023-04-25T23:24:57.192Z,49.2
2023-04-25T23:29:57.232Z,49.3
2023-04-25T23:34:57.610Z,49.2
2023-04-25T23:39:58.013Z,49.2
2023-04-25T23:44:58.576Z,49.2
2023-04-25T23:49:59.100Z,49.3
2023-04-25T23:54:59.340Z,49.3
